createdAt,value
2023-04-16T00:00:48.546Z,100.00
2023-04-16T00:03:16.770Z,100.00
2023-04-16T00:05:44.266Z,100.00
2023-04-16T00:08:12.562Z,100.00
2023-04-16T00:10:40.117Z,100.00
2023-04-16T00:13:07.690Z,100.00
2023-04-16T00:15:35.565Z,100.00
2023-04-16T00:18:03.385Z,100.00
2023-04-16T00:20:31.222Z,100.00
2023-04-16T00:22:58.842Z,100.00
2023-04-16T00:25:26.237Z,100.00
2023-04-16T00:27:53.680Z,100.00
2023-04-16T00:30:21.089Z,100.00
2023-04-16T00:32:48.625Z,100.00
2023-04-16T00:35:16.218Z,100.00
2023-04-16T00:37:43.765Z,100.00
2023-04-16T00:40:11.553Z,100.00
2023-04-16T00:42:39.012Z,100.00
2023-04-16T00:45:06.903Z,100.00
2023-04-16T00:47:35.009Z,100.00
2023-04-16T00:50:04.593Z,100.00
2023-04-16T00:52:33.295Z,100.00
2023-04-16T00:55:01.285Z,100.00
2023-04-16T00:57:28.820Z,100.00
2023-04-16T00:59:56.787Z,100.00
2023-04-16T01:02:25.268Z,100.00
2023-04-16T01:04:53.386Z,100.00
2023-04-16T01:07:20.813Z,100.00
2023-04-16T01:09:48.185Z,100.00
2023-04-16T01:12:15.743Z,100.00
2023-04-16T01:14:43.188Z,100.00
2023-04-16T01:17:10.858Z,100.00
2023-04-16T01:19:38.633Z,100.00
2023-04-16T01:22:06.206Z,100.00
2023-04-16T01:24:35.072Z,100.00
2023-04-16T01:27:02.658Z,100.00
2023-04-16T01:29:30.332Z,100.00
2023-04-16T01:31:57.684Z,100.00
2023-04-16T01:34:25.651Z,100.00
2023-04-16T01:36:53.078Z,100.00
2023-04-16T01:39:20.542Z,100.00
2023-04-16T01:41:47.882Z,100.00
2023-04-16T01:44:15.644Z,100.00
2023-04-16T01:46:44.242Z,100.00
2023-04-16T01:49:11.970Z,100.00
2023-04-16T01:51:39.628Z,100.00
2023-04-16T01:54:06.953Z,100.00
2023-04-16T01:56:35.092Z,100.00
2023-04-16T01:59:02.402Z,100.00
2023-04-16T02:01:30.911Z,100.00
2023-04-16T02:03:58.545Z,100.00
2023-04-16T02:06:27.521Z,100.00
2023-04-16T02:08:55.622Z,100.00
2023-04-16T02:11:23.845Z,100.00
2023-04-16T02:13:51.412Z,100.00
2023-04-16T02:16:18.793Z,100.00
2023-04-16T02:18:46.419Z,100.00
2023-04-16T02:21:14.599Z,100.00
2023-04-16T02:23:42.166Z,100.00
2023-04-16T02:26:09.551Z,100.00
2023-04-16T02:28:36.966Z,100.00
2023-04-16T02:31:04.394Z,100.00
2023-04-16T02:33:32.042Z,100.00
2023-04-16T02:35:59.533Z,100.00
2023-04-16T02:38:26.913Z,100.00
2023-04-16T02:40:54.258Z,100.00
2023-04-16T02:43:22.004Z,100.00
2023-04-16T02:45:49.493Z,100.00
2023-04-16T02:48:16.872Z,100.00
2023-04-16T02:50:44.301Z,100.00
2023-04-16T02:53:11.726Z,100.00
2023-04-16T02:55:39.378Z,100.00
2023-04-16T02:58:06.796Z,100.00
2023-04-16T03:00:35.533Z,100.00
2023-04-16T03:03:03.548Z,100.00
2023-04-16T03:05:31.081Z,100.00
2023-04-16T03:07:58.471Z,100.00
2023-04-16T03:10:25.822Z,100.00
2023-04-16T03:12:53.644Z,100.00
2023-04-16T03:15:21.085Z,100.00
2023-04-16T03:17:49.049Z,100.00
2023-04-16T03:20:17.247Z,100.00
2023-04-16T03:22:46.491Z,100.00
2023-04-16T03:25:14.263Z,100.00
2023-04-16T03:27:41.884Z,100.00
2023-04-16T03:30:11.741Z,100.00
2023-04-16T03:32:39.904Z,100.00
2023-04-16T03:35:08.149Z,100.00
2023-04-16T03:37:35.921Z,100.00
2023-04-16T03:40:05.856Z,100.00
2023-04-16T03:42:33.734Z,100.00
2023-04-16T03:45:01.295Z,100.00
2023-04-16T03:47:29.226Z,100.00
2023-04-16T03:49:56.593Z,100.00
2023-04-16T03:52:23.923Z,100.00
2023-04-16T03:54:51.575Z,100.00
2023-04-16T03:57:19.022Z,100.00
2023-04-16T03:59:46.437Z,100.00
2023-04-16T04:02:14.046Z,100.00
2023-04-16T04:04:41.464Z,100.00
2023-04-16T04:07:08.891Z,100.00
2023-04-16T04:09:36.680Z,100.00
2023-04-16T04:12:04.143Z,100.00
2023-04-16T04:14:31.774Z,100.00
2023-04-16T04:16:59.405Z,100.00
2023-04-16T04:19:26.806Z,100.00
2023-04-16T04:21:54.309Z,100.00
2023-04-16T04:24:21.828Z,100.00
2023-04-16T04:26:49.216Z,100.00
2023-04-16T04:29:16.840Z,100.00
2023-04-16T04:31:44.393Z,100.00
2023-04-16T04:34:12.419Z,100.00
2023-04-16T04:36:39.778Z,100.00
2023-04-16T04:39:07.542Z,100.00
2023-04-16T04:41:36.438Z,100.00
2023-04-16T04:44:03.925Z,100.00
2023-04-16T04:46:31.537Z,100.00
2023-04-16T04:48:58.874Z,100.00
2023-04-16T04:51:27.199Z,100.00
2023-04-16T04:53:54.511Z,100.00
2023-04-16T04:56:22.266Z,100.00
2023-04-16T04:58:51.138Z,100.00
2023-04-16T05:01:18.572Z,100.00
2023-04-16T05:03:46.358Z,100.00
2023-04-16T05:06:14.035Z,99.05
2023-04-16T05:08:41.474Z,98.78
2023-04-16T05:11:09.460Z,98.15
2023-04-16T05:13:37.184Z,97.18
2023-04-16T05:16:04.994Z,98.55
2023-04-16T05:18:33.489Z,97.18
2023-04-16T05:21:00.937Z,96.44
2023-04-16T05:23:30.667Z,95.80
2023-04-16T05:25:58.038Z,93.76
2023-04-16T05:28:25.417Z,93.48
2023-04-16T05:30:52.990Z,94.18
2023-04-16T05:33:21.011Z,94.07
2023-04-16T05:35:48.421Z,94.85
2023-04-16T05:38:15.820Z,93.67
2023-04-16T05:40:43.340Z,93.12
2023-04-16T05:43:11.101Z,93.83
2023-04-16T05:45:41.357Z,93.33
2023-04-16T05:48:12.502Z,94.06
2023-04-16T05:50:39.960Z,92.11
2023-04-16T05:53:08.686Z,91.60
2023-04-16T05:55:39.268Z,93.57
2023-04-16T05:58:07.067Z,88.97
2023-04-16T06:00:34.861Z,88.30
2023-04-16T06:03:03.162Z,87.57
2023-04-16T06:05:31.426Z,86.86
2023-04-16T06:07:58.754Z,87.65
2023-04-16T06:10:26.203Z,86.54
2023-04-16T06:12:53.988Z,84.95
2023-04-16T06:15:23.021Z,84.57
2023-04-16T06:17:51.089Z,86.70
2023-04-16T06:20:18.683Z,84.60
2023-04-16T06:22:46.274Z,85.18
2023-04-16T06:25:14.480Z,85.59
2023-04-16T06:27:42.593Z,84.04
2023-04-16T06:30:14.602Z,82.70
2023-04-16T06:32:46.201Z,81.33
2023-04-16T06:35:13.794Z,81.73
2023-04-16T06:37:41.474Z,82.22
2023-04-16T06:40:11.041Z,81.70
2023-04-16T06:42:38.485Z,81.50
2023-04-16T06:45:06.600Z,81.60
2023-04-16T06:47:34.079Z,79.33
2023-04-16T06:50:01.502Z,79.95
2023-04-16T06:52:29.800Z,82.12
2023-04-16T06:54:57.196Z,79.34
2023-04-16T06:57:24.609Z,78.03
2023-04-16T06:59:52.114Z,79.33
2023-04-16T07:02:19.648Z,77.70
2023-04-16T07:04:47.138Z,76.52
2023-04-16T07:07:14.922Z,77.56
2023-04-16T07:09:42.441Z,76.83
2023-04-16T07:12:10.085Z,75.34
2023-04-16T07:14:37.714Z,77.88
2023-04-16T07:17:05.293Z,76.13
2023-04-16T07:19:32.951Z,74.40
2023-04-16T07:22:00.726Z,74.38
2023-04-16T07:24:28.254Z,76.02
2023-04-16T07:26:55.684Z,75.00
2023-04-16T07:29:23.049Z,76.82
2023-04-16T07:31:50.474Z,76.98
2023-04-16T07:34:17.936Z,75.70
2023-04-16T07:36:45.307Z,73.49
2023-04-16T07:39:13.355Z,74.67
2023-04-16T07:41:41.339Z,74.44
2023-04-16T07:44:09.436Z,73.75
2023-04-16T07:46:46.466Z,75.81
2023-04-16T07:49:15.200Z,73.46
2023-04-16T07:51:42.751Z,72.76
2023-04-16T07:54:10.848Z,73.20
2023-04-16T07:56:39.002Z,74.12
2023-04-16T07:59:21.085Z,72.91
2023-04-16T08:01:50.281Z,76.90
2023-04-16T08:04:23.318Z,72.67
2023-04-16T08:06:52.045Z,71.88
2023-04-16T08:09:21.151Z,73.12
2023-04-16T08:11:50.067Z,72.76
2023-04-16T08:14:17.718Z,72.00
2023-04-16T08:16:45.402Z,72.25
2023-04-16T08:19:13.018Z,71.23
2023-04-16T08:21:41.168Z,70.82
2023-04-16T08:24:08.943Z,70.13
2023-04-16T08:26:36.406Z,67.93
2023-04-16T08:29:03.913Z,71.19
2023-04-16T08:31:31.954Z,67.57
2023-04-16T08:34:00.816Z,66.17
2023-04-16T08:36:28.227Z,67.14
2023-04-16T08:38:55.590Z,66.22
2023-04-16T08:41:25.221Z,67.02
2023-04-16T08:43:57.840Z,65.71
2023-04-16T08:46:26.793Z,66.04
2023-04-16T08:48:56.289Z,63.07
2023-04-16T08:51:24.331Z,65.72
2023-04-16T08:53:52.867Z,63.63
2023-04-16T08:56:24.959Z,62.37
2023-04-16T08:58:55.075Z,61.96
2023-04-16T09:01:22.940Z,63.60
2023-04-16T09:03:51.289Z,59.03
2023-04-16T09:06:19.899Z,60.75
2023-04-16T09:08:49.358Z,60.67
2023-04-16T09:11:20.508Z,59.93
2023-04-16T09:13:48.528Z,59.94
2023-04-16T09:16:15.995Z,61.32
2023-04-16T09:18:43.458Z,60.73
2023-04-16T09:21:11.378Z,58.17
2023-04-16T09:23:39.272Z,58.14
2023-04-16T09:26:06.678Z,57.21
2023-04-16T09:28:44.146Z,59.63
2023-04-16T09:31:14.026Z,56.51
2023-04-16T09:33:42.987Z,59.38
2023-04-16T09:36:11.448Z,58.30
2023-04-16T09:38:58.230Z,56.19
2023-04-16T09:41:30.466Z,54.83
2023-04-16T09:43:59.636Z,53.10
2023-04-16T09:46:41.103Z,55.76
2023-04-16T09:49:15.544Z,54.26
2023-04-16T09:51:45.175Z,56.24
2023-04-16T09:54:12.727Z,55.00
2023-04-16T09:56:43.696Z,52.32
2023-04-16T09:59:20.577Z,51.08
2023-04-16T10:01:49.860Z,51.48
2023-04-16T10:04:17.673Z,52.16
2023-04-16T10:06:48.563Z,51.45
2023-04-16T10:09:16.245Z,51.46
2023-04-16T10:11:43.958Z,49.85
2023-04-16T10:14:11.726Z,52.20
2023-04-16T10:16:41.269Z,52.25
2023-04-16T10:19:09.379Z,50.96
2023-04-16T10:21:37.146Z,49.43
2023-04-16T10:24:05.090Z,48.68
2023-04-16T10:26:33.442Z,49.16
2023-04-16T10:29:02.698Z,49.07
2023-04-16T10:31:30.942Z,49.06
2023-04-16T10:33:59.041Z,50.62
2023-04-16T10:36:26.804Z,49.47
2023-04-16T10:38:59.734Z,49.44
2023-04-16T10:41:27.846Z,48.85
2023-04-16T10:44:11.647Z,47.88
2023-04-16T10:46:41.925Z,48.92
2023-04-16T10:49:17.801Z,46.43
2023-04-16T10:51:57.648Z,47.88
2023-04-16T10:54:28.636Z,48.04
2023-04-16T10:57:04.369Z,48.35
2023-04-16T10:59:39.885Z,48.21
2023-04-16T11:02:11.979Z,49.45
2023-04-16T11:04:42.454Z,45.98
2023-04-16T11:07:16.606Z,46.07
2023-04-16T11:09:51.353Z,46.48
2023-04-16T11:12:24.208Z,44.91
2023-04-16T11:14:53.894Z,45.18
2023-04-16T11:17:22.035Z,46.92
2023-04-16T11:19:49.613Z,45.38
2023-04-16T11:22:17.904Z,44.82
2023-04-16T11:24:46.619Z,44.33
2023-04-16T11:27:16.164Z,44.83
2023-04-16T11:29:45.777Z,44.35
2023-04-16T11:32:24.405Z,43.25
2023-04-16T11:34:51.826Z,46.56
2023-04-16T11:37:22.066Z,43.80
2023-04-16T11:39:52.204Z,42.77
2023-04-16T11:42:23.078Z,42.26
2023-04-16T11:44:55.280Z,43.40
2023-04-16T11:47:24.880Z,42.02
2023-04-16T11:49:52.481Z,42.23
2023-04-16T11:52:33.743Z,41.75
2023-04-16T11:55:02.735Z,42.49
2023-04-16T11:57:31.904Z,40.81
2023-04-16T12:00:01.658Z,42.15
2023-04-16T12:02:43.932Z,42.21
2023-04-16T12:05:31.984Z,41.73
2023-04-16T12:08:01.748Z,44.08
2023-04-16T12:10:30.792Z,42.50
2023-04-16T12:13:11.840Z,42.34
2023-04-16T12:15:50.113Z,41.56
2023-04-16T12:18:18.938Z,39.52
2023-04-16T12:20:47.310Z,40.13
2023-04-16T12:23:33.034Z,39.13
2023-04-16T12:26:10.615Z,39.03
2023-04-16T12:28:41.776Z,38.95
2023-04-16T12:31:10.856Z,36.95
2023-04-16T12:33:38.326Z,39.70
2023-04-16T12:36:21.122Z,38.27
2023-04-16T12:38:48.457Z,36.57
2023-04-16T12:41:16.087Z,38.76
2023-04-16T12:43:43.509Z,37.47
2023-04-16T12:46:11.202Z,36.55
2023-04-16T12:48:38.557Z,36.43
2023-04-16T12:51:06.622Z,34.90
2023-04-16T12:53:35.224Z,34.67
2023-04-16T12:56:02.780Z,35.37
2023-04-16T12:58:30.465Z,34.52
2023-04-16T13:00:58.482Z,33.68
2023-04-16T13:03:26.240Z,32.98
2023-04-16T13:05:54.230Z,34.52
2023-04-16T13:08:22.010Z,34.29
2023-04-16T13:10:49.597Z,34.03
2023-04-16T13:13:17.594Z,32.63
2023-04-16T13:15:45.080Z,35.68
2023-04-16T13:18:12.786Z,35.90
2023-04-16T13:20:40.158Z,34.97
2023-04-16T13:23:07.588Z,34.76
2023-04-16T13:25:35.209Z,33.81
2023-04-16T13:28:02.637Z,35.00
2023-04-16T13:30:30.321Z,34.60
2023-04-16T13:32:59.233Z,34.69
2023-04-16T13:35:27.480Z,34.13
2023-04-16T13:37:54.934Z,34.63
2023-04-16T13:40:22.476Z,34.34
2023-04-16T13:42:49.839Z,35.54
2023-04-16T13:45:17.421Z,36.08
2023-04-16T13:47:44.985Z,36.09
2023-04-16T13:50:12.511Z,35.62
2023-04-16T13:52:40.159Z,35.07
2023-04-16T13:55:09.717Z,35.64
2023-04-16T13:57:37.531Z,35.42
2023-04-16T14:00:05.479Z,35.92
2023-04-16T14:02:33.801Z,36.09
2023-04-16T14:05:01.255Z,36.36
2023-04-16T14:07:29.320Z,35.73
2023-04-16T14:09:56.772Z,36.51
2023-04-16T14:12:25.464Z,36.85
2023-04-16T14:14:52.984Z,38.12
2023-04-16T14:17:20.342Z,37.84
2023-04-16T14:19:47.753Z,36.39
2023-04-16T14:22:17.863Z,38.10
2023-04-16T14:24:45.452Z,38.85
2023-04-16T14:27:12.842Z,39.22
2023-04-16T14:29:41.085Z,40.18
2023-04-16T14:32:08.671Z,41.47
2023-04-16T14:34:36.368Z,43.21
2023-04-16T14:37:04.397Z,41.81
2023-04-16T14:39:32.009Z,42.60
2023-04-16T14:41:59.582Z,43.17
2023-04-16T14:44:27.085Z,42.82
2023-04-16T14:46:55.450Z,42.82
2023-04-16T14:49:22.956Z,44.53
2023-04-16T14:51:50.716Z,44.65
2023-04-16T14:54:19.581Z,44.44
2023-04-16T14:56:47.594Z,44.18
2023-04-16T14:59:15.131Z,44.04
2023-04-16T15:01:43.211Z,44.56
2023-04-16T15:04:10.917Z,46.19
2023-04-16T15:06:38.522Z,46.33
2023-04-16T15:09:07.540Z,46.85
2023-04-16T15:11:35.242Z,46.53
2023-04-16T15:14:02.655Z,45.50
2023-04-16T15:16:30.740Z,45.10
2023-04-16T15:18:58.830Z,44.32
2023-04-16T15:21:28.050Z,45.32
2023-04-16T15:23:55.446Z,45.95
2023-04-16T15:26:23.331Z,46.34
2023-04-16T15:28:50.685Z,45.60
2023-04-16T15:31:20.953Z,43.72
2023-04-16T15:33:49.643Z,41.55
2023-04-16T15:36:17.169Z,42.48
2023-04-16T15:38:44.922Z,42.86
2023-04-16T15:41:12.854Z,43.54
2023-04-16T15:43:40.651Z,43.08
2023-04-16T15:46:08.955Z,43.77
2023-04-16T15:48:36.485Z,42.11
2023-04-16T15:51:06.052Z,43.26
2023-04-16T15:53:34.661Z,43.07
2023-04-16T15:56:02.099Z,42.42
2023-04-16T15:58:29.641Z,40.71
2023-04-16T16:00:57.218Z,40.02
2023-04-16T16:03:24.709Z,40.44
2023-04-16T16:05:52.248Z,40.54
2023-04-16T16:08:19.764Z,39.25
2023-04-16T16:10:47.478Z,40.69
2023-04-16T16:13:18.170Z,39.98
2023-04-16T16:15:45.803Z,39.35
2023-04-16T16:18:13.153Z,39.77
2023-04-16T16:20:40.716Z,39.26
2023-04-16T16:23:08.162Z,40.02
2023-04-16T16:25:36.020Z,39.43
2023-04-16T16:28:06.310Z,39.04
2023-04-16T16:30:34.326Z,38.95
2023-04-16T16:33:01.805Z,38.98
2023-04-16T16:35:29.571Z,38.74
2023-04-16T16:37:57.404Z,40.06
2023-04-16T16:40:25.353Z,38.66
2023-04-16T16:42:52.905Z,37.37
2023-04-16T16:45:20.281Z,37.71
2023-04-16T16:47:48.883Z,37.90
2023-04-16T16:50:16.738Z,38.33
2023-04-16T16:52:44.656Z,38.23
2023-04-16T16:55:12.197Z,37.68
2023-04-16T16:57:39.912Z,37.96
2023-04-16T17:00:14.461Z,39.49
2023-04-16T17:02:42.173Z,38.75
2023-04-16T17:05:09.934Z,39.07
2023-04-16T17:07:37.971Z,39.09
2023-04-16T17:10:07.002Z,38.56
2023-04-16T17:12:35.686Z,41.35
2023-04-16T17:15:03.163Z,39.33
2023-04-16T17:17:31.760Z,39.71
2023-04-16T17:20:01.018Z,39.81
2023-04-16T17:22:28.702Z,40.57
2023-04-16T17:24:56.355Z,39.71
2023-04-16T17:27:23.697Z,39.37
2023-04-16T17:29:51.196Z,40.03
2023-04-16T17:32:18.763Z,41.74
2023-04-16T17:34:46.394Z,40.72
2023-04-16T17:37:14.190Z,40.13
2023-04-16T17:39:41.681Z,39.71
2023-04-16T17:42:09.104Z,40.46
2023-04-16T17:44:36.466Z,40.32
2023-04-16T17:47:04.454Z,40.72
2023-04-16T17:49:31.973Z,39.93
2023-04-16T17:51:59.358Z,40.98
2023-04-16T17:54:26.733Z,40.93
2023-04-16T17:56:54.093Z,40.88
2023-04-16T17:59:22.050Z,41.38
2023-04-16T18:01:49.772Z,41.55
2023-04-16T18:04:17.802Z,42.19
2023-04-16T18:06:45.782Z,41.62
2023-04-16T18:09:14.402Z,41.90
2023-04-16T18:11:42.321Z,41.54
2023-04-16T18:14:11.883Z,42.08
2023-04-16T18:16:39.525Z,41.77
2023-04-16T18:19:07.067Z,42.28
2023-04-16T18:21:35.884Z,41.94
2023-04-16T18:24:03.619Z,42.22
2023-04-16T18:26:32.372Z,41.90
2023-04-16T18:29:03.981Z,42.21
2023-04-16T18:31:32.180Z,44.24
2023-04-16T18:33:59.751Z,43.20
2023-04-16T18:36:27.455Z,42.60
2023-04-16T18:39:02.100Z,42.90
2023-04-16T18:41:31.271Z,43.80
2023-04-16T18:43:58.728Z,44.47
2023-04-16T18:46:27.536Z,44.07
2023-04-16T18:48:55.832Z,44.55
2023-04-16T18:51:23.418Z,44.34
2023-04-16T18:53:53.309Z,45.65
2023-04-16T18:56:20.963Z,45.18
2023-04-16T18:58:48.341Z,44.29
2023-04-16T19:01:16.675Z,45.35
2023-04-16T19:03:44.216Z,45.63
2023-04-16T19:06:11.723Z,46.47
2023-04-16T19:08:39.359Z,47.65
2023-04-16T19:11:06.726Z,47.89
2023-04-16T19:13:34.266Z,47.73
2023-04-16T19:16:02.342Z,49.26
2023-04-16T19:18:29.854Z,48.83
2023-04-16T19:21:01.276Z,48.55
2023-04-16T19:23:29.281Z,49.15
2023-04-16T19:25:57.223Z,49.03
2023-04-16T19:28:25.808Z,49.22
2023-04-16T19:30:54.092Z,49.52
2023-04-16T19:33:21.869Z,49.22
2023-04-16T19:35:49.304Z,49.18
2023-04-16T19:38:17.164Z,49.10
2023-04-16T19:40:46.743Z,49.46
2023-04-16T19:43:14.746Z,49.88
2023-04-16T19:45:46.682Z,51.42
2023-04-16T19:48:15.652Z,50.15
2023-04-16T19:50:43.141Z,51.19
2023-04-16T19:53:11.611Z,51.53
2023-04-16T19:55:39.904Z,51.97
2023-04-16T19:58:10.718Z,51.46
2023-04-16T20:00:43.457Z,51.46
2023-04-16T20:03:11.111Z,51.55
2023-04-16T20:05:39.029Z,50.55
2023-04-16T20:08:06.627Z,51.93
2023-04-16T20:10:34.284Z,53.20
2023-04-16T20:13:01.731Z,52.73
2023-04-16T20:15:29.476Z,52.88
2023-04-16T20:17:56.926Z,53.91
2023-04-16T20:20:24.536Z,52.52
2023-04-16T20:22:51.967Z,52.50
2023-04-16T20:25:19.672Z,53.91
2023-04-16T20:27:47.159Z,54.36
2023-04-16T20:30:14.922Z,53.97
2023-04-16T20:32:42.549Z,54.31
2023-04-16T20:35:11.584Z,54.25
2023-04-16T20:37:39.235Z,54.50
2023-04-16T20:40:08.945Z,53.76
2023-04-16T20:42:36.670Z,54.79
2023-04-16T20:45:04.993Z,54.05
2023-04-16T20:47:35.890Z,54.48
2023-04-16T20:50:03.900Z,54.96
2023-04-16T20:52:31.482Z,55.35
2023-04-16T20:54:59.071Z,55.81
2023-04-16T20:57:28.174Z,55.46
2023-04-16T20:59:56.516Z,56.13
2023-04-16T21:02:24.446Z,56.12
2023-04-16T21:04:53.106Z,55.91
2023-04-16T21:07:20.998Z,56.84
2023-04-16T21:09:48.368Z,56.13
2023-04-16T21:12:16.089Z,56.80
2023-04-16T21:14:43.575Z,56.55
2023-04-16T21:17:10.884Z,57.85
2023-04-16T21:19:38.322Z,56.99
2023-04-16T21:22:06.010Z,57.97
2023-04-16T21:24:34.160Z,57.70
2023-04-16T21:27:03.457Z,58.75
2023-04-16T21:29:30.982Z,59.19
2023-04-16T21:31:58.411Z,58.24
2023-04-16T21:34:25.743Z,58.97
2023-04-16T21:36:53.213Z,58.84
2023-04-16T21:39:21.899Z,60.04
2023-04-16T21:41:49.562Z,58.65
2023-04-16T21:44:16.998Z,59.02
2023-04-16T21:46:44.633Z,60.29
2023-04-16T21:49:12.543Z,60.04
2023-04-16T21:51:40.695Z,59.86
2023-04-16T21:54:08.213Z,59.51
2023-04-16T21:56:36.099Z,60.48
2023-04-16T21:59:03.809Z,59.92
2023-04-16T22:01:31.685Z,60.89
2023-04-16T22:03:59.174Z,61.23
2023-04-16T22:06:27.307Z,60.83
2023-04-16T22:08:54.700Z,60.68
2023-04-16T22:11:22.673Z,60.40
2023-04-16T22:13:50.716Z,61.76
2023-04-16T22:16:18.273Z,62.46
2023-04-16T22:18:47.374Z,62.12
2023-04-16T22:21:14.932Z,62.85
2023-04-16T22:23:42.364Z,61.06
2023-04-16T22:26:10.143Z,62.49
2023-04-16T22:28:37.571Z,62.39
2023-04-16T22:31:05.101Z,62.19
2023-04-16T22:33:32.475Z,63.09
2023-04-16T22:36:00.689Z,63.76
2023-04-16T22:38:28.089Z,62.43
2023-04-16T22:40:55.447Z,62.83
2023-04-16T22:43:23.095Z,62.62
2023-04-16T22:46:00.364Z,63.33
2023-04-16T22:48:28.153Z,63.97
2023-04-16T22:50:55.508Z,64.20
2023-04-16T22:53:23.174Z,64.31
2023-04-16T22:55:51.204Z,63.99
2023-04-16T22:58:18.756Z,63.32
2023-04-16T23:00:47.658Z,64.03
2023-04-16T23:03:15.746Z,64.09
2023-04-16T23:05:43.156Z,64.11
2023-04-16T23:08:10.710Z,64.03
2023-04-16T23:10:38.234Z,65.69
2023-04-16T23:13:05.883Z,66.30
2023-04-16T23:15:33.273Z,65.92
2023-04-16T23:18:00.879Z,66.63
2023-04-16T23:20:29.147Z,66.63
2023-04-16T23:22:56.600Z,66.27
2023-04-16T23:25:24.212Z,68.10
2023-04-16T23:27:51.921Z,66.88
2023-04-16T23:30:19.412Z,67.33
2023-04-16T23:32:46.969Z,66.93
2023-04-16T23:35:20.537Z,67.73
2023-04-16T23:37:47.925Z,67.76
2023-04-16T23:40:15.801Z,67.44
2023-04-16T23:42:44.012Z,67.67
2023-04-16T23:45:11.787Z,66.87
2023-04-16T23:47:39.355Z,67.85
2023-04-16T23:50:07.208Z,67.45
2023-04-16T23:52:35.838Z,67.26
2023-04-16T23:55:03.380Z,68.17
2023-04-16T23:57:31.084Z,68.92
2023-04-16T23:59:58.504Z,68.07
